METAR Data
IDs: Format: Raw Decoded Include TAF

Data at: 1620 UTC 19 Sep 2018

KBTA 191615Z AUTO 08009KT 5SM BR OVC004 22/21 A2993 RMK AO2 T02170208
KBTA 191555Z AUTO 09010KT 5SM BR OVC004 22/21 A2992 RMK AO2 T02150209
KBTA 191535Z AUTO 07008G15KT 5SM BR OVC002 21/20 A2992 RMK AO2 T02070203
KBTA 191515Z AUTO 07010KT 4SM BR OVC002 21/20 A2992 RMK AO2 T02050201
KBTA 191455Z AUTO 08010KT 4SM BR OVC002 20/20 A2992 RMK AO2 T02010198
KBTA 191435Z AUTO 07009KT 3SM BR OVC002 20/20 A2991 RMK AO2 T01970195
KBTA 191415Z AUTO 07008KT 2 1/2SM BR OVC002 19/19 A2992 RMK AO2 T01940190
KBTA 191355Z AUTO 08008KT 3/4SM BR OVC002 19/19 A2992 RMK AO2 T01940191
KBTA 191335Z AUTO 03012KT 1 1/2SM BR OVC002 20/19 A2992 RMK AO2 T01950192
KBTA 191315Z AUTO 03010KT 3/4SM BR OVC002 20/19 A2992 RMK AO2 T01950191
KBTA 191255Z AUTO 01011G18KT 3/4SM BR OVC002 19/19 A2992 RMK AO2 T01930190
KBTA 191235Z AUTO 01012KT 3/4SM BR OVC002 19/19 A2992 RMK AO2 LTG DSNT N T01930190
KBTA 191215Z AUTO 03006KT 2 1/2SM BR OVC002 19/19 A2991 RMK AO2 T01920190
KBTA 191155Z AUTO 10005KT 1 1/2SM BR OVC002 19/19 A2990 RMK AO2 70027 T01930190 10193 20187
KBTA 191135Z AUTO 11005KT 1 1/2SM BR OVC002 19/19 A2989 RMK AO2 T01930190
KBTA 191115Z AUTO 13005KT 2SM BR OVC002 19/19 A2988 RMK AO2 LTG DSNT N T01920189
KBTA 191055Z AUTO 13005KT 3SM BR OVC004 19/19 A2987 RMK AO2 T01910187
KBTA 191035Z AUTO 12005KT 4SM BR OVC004 19/19 A2987 RMK AO2 T01920188
KBTA 191015Z AUTO 11006KT 4SM BR OVC004 19/19 A2986 RMK AO2 LTG DSNT N T01900186
KBTA 190955Z AUTO 13005KT 4SM BR OVC004 19/19 A2986 RMK AO2 T01880185
KBTA 190935Z AUTO 12005KT 4SM BR OVC004 19/18 A2986 RMK AO2 T01880184
KBTA 190915Z AUTO 11004KT 5SM BR OVC004 19/19 A2987 RMK AO2 T01880185
KBTA 190855Z AUTO 09006KT 7SM BKN004 BKN110 19/19 A2988 RMK AO2 T01900185
KBTA 190835Z AUTO 08006KT 7SM SCT004 BKN110 19/19 A2988 RMK AO2 LTG DSNT N T01900186
KBTA 190815Z AUTO 08006KT 7SM CLR 19/19 A2988 RMK AO2 T01900185
KBTA 190755Z AUTO 07005KT 7SM CLR 19/19 A2989 RMK AO2 T01900185
KBTA 190735Z AUTO 08005KT 7SM CLR 19/19 A2989 RMK AO2 T01880185
KBTA 190715Z AUTO 07006KT 7SM SCT002 19/19 A2990 RMK AO2 T01890185
KBTA 190700Z AUTO 07005KT 4SM BR BKN002 19/19 A2991 RMK AO2 T01890185
KBTA 190635Z AUTO 05007KT 2SM BR OVC002 19/19 A2991 RMK AO2 T01880185
KBTA 190615Z AUTO 05006KT 5SM BR SCT002 19/18 A2992 RMK AO2 T01880184
KBTA 190555Z AUTO 05006KT 5SM VCTS BR SCT002 19/18 A2992 RMK AO2 LTG DSNT N THRU E T01880183 10198 20187 402820183
KBTA 190535Z AUTO 05006KT 7SM SCT002 19/18 A2992 RMK AO2 LTG DSNT N T01880183
KBTA 190515Z AUTO 05006KT 7SM SCT003 SCT120 19/19 A2992 RMK AO2 LTG DSNT N T01900185
KBTA 190455Z AUTO 05006KT 10SM SCT003 SCT120 19/18 A2992 RMK AO2 LTG DSNT N AND E T01900183
KBTA 190435Z AUTO 07007KT 10SM VCTS CLR 19/18 A2992 RMK AO2 LTG DSNT N THRU E T01900183
KBTA 190415Z AUTO 02007KT 10SM SCT065 SCT075 SCT085 19/18 A2992 RMK AO2 LTG DSNT NW THRU E T01900183
KBTA 190355Z AUTO 01010KT 10SM VCTS SCT038 BKN065 OVC110 19/19 A2992 RMK AO2 LTG DSNT ALQS T01910185
KBTA 190335Z AUTO 34006KT 10SM -RA SCT032 SCT045 BKN085 19/19 A2992 RMK AO2 LTG DSNT W AND NW T01910185
KBTA 190315Z AUTO 03006KT 10SM TS SCT065 SCT080 19/18 A2991 RMK AO2 LTG DSNT W T01900182
KBTA 190255Z AUTO 03006KT 10SM BKN065 BKN090 BKN120 19/18 A2991 RMK AO2 LTG DSNT E T01910183
KBTA 190235Z AUTO 01007KT 10SM -RA SCT055 BKN070 OVC120 19/18 A2992 RMK AO2 T01920183
KBTA 190215Z AUTO 07004KT 10SM BKN070 OVC090 19/18 A2991 RMK AO2 T01930184
KBTA 190155Z AUTO 07003KT 10SM SCT070 BKN080 BKN100 19/18 A2991 RMK AO2 T01900182
KBTA 190135Z AUTO 05003KT 10SM CLR 19/18 A2990 RMK AO2 T01880180
KBTA 190115Z AUTO 04003KT 10SM SCT100 19/18 A2990 RMK AO2 T01900180
KBTA 190055Z AUTO 10004KT 10SM SCT110 19/18 A2990 RMK AO2 T01910180
KBTA 190035Z AUTO 00000KT 10SM SCT110 19/18 A2990 RMK AO2 T01930180
KBTA 190015Z AUTO 11004KT 10SM SCT110 20/18 A2989 RMK AO2 T01980180
KBTA 182355Z AUTO 13004KT 10SM CLR 20/18 A2989 RMK AO2 60027 T01990180 10251 20183
KBTA 182335Z AUTO 12008KT 10SM CLR 21/18 A2990 RMK AO2 T02060181
KBTA 182315Z AUTO 13008KT 10SM CLR 20/18 A2989 RMK AO2 T02030180
KBTA 182255Z AUTO 11004KT 10SM CLR 20/18 A2989 RMK AO2 LTG DSNT SE T01960177
KBTA 182235Z AUTO 14010G20KT 10SM CLR 20/19 A2987 RMK AO2 T01960188
KBTA 182215Z AUTO 11017G25KT 10SM SCT120 19/18 A2984 RMK AO2 LTG DSNT E THRU S T01860181
KBTA 182155Z AUTO 12021G26KT 10SM TS SCT018 SCT023 BKN110 19/18 A2986 RMK AO2 LTG DSNT E THRU S P0027 T01850178
KBTA 182135Z AUTO 10018G22KT 1 1/2SM +TSRA SCT019 BKN032 OVC070 20/17 A2993 RMK AO2 LTG DSNT ALQS P0022 T01960171
KBTA 182115Z AUTO 07009KT 10SM -RA BKN049 BKN070 OVC095 21/17 A2995 RMK AO2 LTG DSNT ALQS T02100167
KBTA 182055Z AUTO 02013KT 10SM -VCTSRA BKN049 BKN055 OVC075 21/17 A2996 RMK AO2 LTG DSNT SW THRU NE T02110169
KBTA 182035Z AUTO 08016G22KT 10SM BKN049 BKN055 OVC080 22/17 A2994 RMK AO2 LTG DSNT N AND W T02170165
KBTA 182015Z AUTO 08017G26KT 10SM VCTS SCT038 OVC049 22/17 A2994 RMK AO2 LTG DSNT W THRU N T02230169
KBTA 181955Z AUTO 09016G26KT 10SM BKN033 OVC039 23/18 A2991 RMK AO2 LTG DSNT W THRU N T02280175
KBTA 181935Z AUTO 07024G31KT 10SM BKN028 23/18 A2993 RMK AO2 LTG DSNT N AND NW T02300178
KBTA 181915Z AUTO 06023G30KT 10SM SCT019 BKN026 BKN033 23/18 A2994 RMK AO2 LTG DSNT W THRU NE T02320182
KBTA 181855Z AUTO 05018G30KT 10SM SCT024 23/18 A2995 RMK AO2 LTG DSNT NE SE AND NW T02300181
KBTA 181835Z AUTO 04017G28KT 10SM BKN022 23/18 A2996 RMK AO2 LTG DSNT N AND NE T02320179
KBTA 181815Z AUTO 02019G24KT 10SM OVC022 24/18 A2997 RMK AO2 LTG DSNT N AND NW T02370178
KBTA 181755Z AUTO 01015G21KT 10SM SCT022 BKN065 BKN085 25/19 A2996 RMK AO2 LTG DSNT W THRU N T02530189 10282 20220
KBTA 181735Z AUTO 04014G19KT 10SM SCT019 SCT065 SCT085 26/20 A2995 RMK AO2 LTG DSNT W THRU N T02580199
KBTA 181715Z AUTO 04012G26KT 10SM SCT019 BKN025 OVC070 24/20 A2995 RMK AO2 LTG DSNT W THRU N T02440199
KBTA 181655Z AUTO 01012KT 10SM OVC025 27/22 A2995 RMK AO2 LTG DSNT N AND NW T02660217
KBTA 181635Z AUTO 03009KT 10SM BKN025 BKN030 BKN070 27/22 A2994 RMK AO2 LTG DSNT NE T02710220
KBTA 181615Z AUTO 34006KT 10SM SCT026 BKN070 BKN095 28/22 A2993 RMK AO2 T02810218
KBTA 181555Z AUTO 29005KT 10SM BKN070 28/21 A2994 RMK AO2 LTG DSNT NW T02790214
KBTA 181535Z AUTO 27005KT 10SM CLR 28/21 A2993 RMK AO2 LTG DSNT NE T02760211
KBTA 181515Z AUTO 30003KT 10SM CLR 27/22 A2992 RMK AO2 LTG DSNT NW T02700217
KBTA 181455Z AUTO 23003KT 10SM CLR 27/21 A2992 RMK AO2 T02650214
KBTA 181435Z AUTO 23004KT 10SM SCT075 26/21 A2992 RMK AO2 LTG DSNT N AND W T02600213
KBTA 181415Z AUTO 21005KT 10SM BKN065 25/21 A2992 RMK AO2 LTG DSNT N T02500213
KBTA 181355Z AUTO 19007KT 10SM BKN065 BKN085 25/21 A2992 RMK AO2 T02450211
KBTA 181335Z AUTO 19006KT 10SM SCT065 24/21 A2992 RMK AO2 T02400211
KBTA 181315Z AUTO 19005KT 10SM CLR 23/21 A2992 RMK AO2 LTG DSNT N T02300211
KBTA 181255Z AUTO 17005KT 10SM CLR 23/21 A2991 RMK AO2 T02250208
KBTA 181235Z AUTO 17005KT 7SM CLR 22/21 A2991 RMK AO2 T02200205
KBTA 181215Z AUTO 17004KT 10SM CLR 22/21 A2991 RMK AO2 T02200205
KBTA 181155Z AUTO 18004KT 10SM CLR 22/21 A2991 RMK AO2 T02230206 10254 20223
KBTA 181135Z AUTO 16007KT 10SM CLR 23/21 A2990 RMK AO2 T02260208
KBTA 181115Z AUTO 16007KT 10SM CLR 23/21 A2990 RMK AO2 T02270207
KBTA 181055Z AUTO 17007KT 10SM CLR 23/21 A2990 RMK AO2 T02300208
KBTA 181035Z AUTO 17007KT 10SM CLR 23/21 A2990 RMK AO2 T02300208
KBTA 181015Z AUTO 17006KT 10SM CLR 23/21 A2991 RMK AO2 T02300208
KBTA 180955Z AUTO 16005KT 10SM CLR 23/21 A2990 RMK AO2 T02320210
KBTA 180935Z AUTO 17006KT 10SM CLR 23/21 A2990 RMK AO2 T02320210
KBTA 180915Z AUTO 16006KT 10SM CLR 23/21 A2990 RMK AO2 T02330210
KBTA 180855Z AUTO 17006KT 10SM CLR 24/21 A2991 RMK AO2 T02350210
KBTA 180835Z AUTO 17006KT 10SM CLR 24/21 A2991 RMK AO2 T02350210
KBTA 180815Z AUTO 17006KT 10SM CLR 24/21 A2992 RMK AO2 T02350211
KBTA 180755Z AUTO 16005KT 10SM CLR 24/21 A2992 RMK AO2 T02370211
KBTA 180735Z AUTO 16005KT 10SM CLR 24/21 A2992 RMK AO2 T02380211
KBTA 180715Z AUTO 16005KT 10SM CLR 24/21 A2992 RMK AO2 T02410211
KBTA 180655Z AUTO 16006KT 10SM CLR 24/21 A2992 RMK AO2 T02410210
KBTA 180635Z AUTO 16005KT 10SM CLR 25/21 A2993 RMK AO2 T02480211
KBTA 180615Z AUTO 16006KT 10SM CLR 25/21 A2993 RMK AO2 T02510211
KBTA 180555Z AUTO 17006KT 10SM CLR 26/21 A2993 RMK AO2 T02550210 10293 20255 403440203
KBTA 180535Z AUTO 17006KT 10SM CLR 26/21 A2993 RMK AO2 T02580210
KBTA 180515Z AUTO 19005KT 10SM CLR 26/21 A2992 RMK AO2 T02570210
KBTA 180455Z AUTO 17006KT 10SM CLR 26/21 A2992 RMK AO2 T02600211
KBTA 180435Z AUTO 18006KT 10SM CLR 26/21 A2992 RMK AO2 T02590211